Time;durP1;ratioP1;P1;durP2;ratioP2;P2;SDS_P1;SDS_P2;PMS_P1;PMS_P2;Temp;Humidity;BMP_temperature;BMP_pressure;BME280_temperature;BME280_humidity;BME280_pressure;Samples;Min_cycle;Max_cycle;Signal;HPM_P1;HPM_P2
2021/08/01 00:00:07;;;;;;;13.65;11.45;;;25.70;72.90;;;;;;1822979;79;21054;-58
2021/08/01 00:02:38;;;;;;;16.90;12.20;;;25.60;72.80;;;;;;1823577;77;21153;-58
2021/08/01 00:05:12;;;;;;;12.93;10.60;;;25.70;72.80;;;;;;1823112;79;21086;-58
2021/08/01 00:07:42;;;;;;;13.28;11.45;;;25.70;72.90;;;;;;1823228;78;21026;-58
2021/08/01 00:10:12;;;;;;;13.83;10.88;;;25.70;72.90;;;;;;1823081;79;21062;-58
2021/08/01 00:12:47;;;;;;;17.20;11.83;;;25.80;73.00;;;;;;1823189;78;21074;-58
2021/08/01 00:15:14;;;;;;;12.75;10.65;;;25.70;72.80;;;;;;1823114;77;21850;-58
2021/08/01 00:17:43;;;;;;;14.40;11.78;;;25.70;72.70;;;;;;1823191;79;21124;-58
2021/08/01 00:20:13;;;;;;;13.32;10.20;;;25.70;72.70;;;;;;1823096;79;21054;-58
2021/08/01 00:22:42;;;;;;;11.85;10.65;;;25.70;72.70;;;;;;1823158;79;21058;-58
2021/08/01 00:25:12;;;;;;;14.38;10.58;;;25.70;72.80;;;;;;1823051;79;21034;-58
2021/08/01 00:27:42;;;;;;;12.85;11.55;;;25.70;72.80;;;;;;1823164;79;21058;-58
2021/08/01 00:30:12;;;;;;;16.10;10.75;;;25.70;72.80;;;;;;1823098;78;21054;-58
2021/08/01 00:32:43;;;;;;;13.48;11.43;;;25.60;73.10;;;;;;1822971;78;21137;-58
2021/08/01 00:35:13;;;;;;;16.35;10.88;;;25.60;73.30;;;;;;1823293;79;21493;-58
2021/08/01 00:37:43;;;;;;;15.18;10.60;;;25.60;73.40;;;;;;1823209;79;21038;-57
2021/08/01 00:40:13;;;;;;;15.38;13.32;;;25.60;73.40;;;;;;1823094;79;21054;-58
2021/08/01 00:42:43;;;;;;;24.30;14.10;;;25.60;73.50;;;;;;1823194;79;21141;-58
2021/08/01 00:45:13;;;;;;;17.60;11.90;;;25.50;73.60;;;;;;1823035;77;21136;-58
2021/08/01 00:47:43;;;;;;;13.80;12.15;;;25.40;73.90;;;;;;1823066;78;21046;-58
2021/08/01 00:50:13;;;;;;;13.68;12.13;;;25.30;74.20;;;;;;1823291;77;21062;-58
2021/08/01 00:52:47;;;;;;;12.10;10.80;;;25.20;74.30;;;;;;1852603;77;21050;-58
2021/08/01 00:55:18;;;;;;;13.95;10.50;;;25.20;74.50;;;;;;1823555;77;21130;-58
2021/08/01 00:57:47;;;;;;;13.25;11.85;;;25.30;74.40;;;;;;1823056;78;21055;-58
2021/08/01 01:00:39;;;;;;;12.25;11.03;;;25.40;74.40;;;;;;1823221;79;21035;-58
2021/08/01 01:02:57;;;;;;;13.45;10.18;;;25.40;74.30;;;;;;1826110;77;21070;-58
2021/08/01 01:05:32;;;;;;;17.82;11.80;;;25.40;74.20;;;;;;1823207;79;21058;-58
2021/08/01 01:08:17;;;;;;;12.93;11.33;;;25.30;74.10;;;;;;1822933;78;21050;-58
2021/08/01 01:11:04;;;;;;;15.50;10.72;;;25.30;74.10;;;;;;1816971;78;21076;-58
2021/08/01 01:13:38;;;;;;;12.98;11.30;;;25.20;74.30;;;;;;1821196;78;21107;-58
2021/08/01 01:16:07;;;;;;;15.05;10.78;;;25.20;74.40;;;;;;1822804;78;21078;-58
2021/08/01 01:18:42;;;;;;;18.17;12.55;;;25.10;74.50;;;;;;1823041;79;21196;-57
2021/08/01 01:21:14;;;;;;;14.73;13.20;;;25.10;74.30;;;;;;1822431;78;21039;-58
2021/08/01 01:23:52;;;;;;;18.15;14.10;;;25.10;74.40;;;;;;1822656;78;21457;-58
2021/08/01 01:26:41;;;;;;;23.50;19.30;;;25.20;74.10;;;;;;1823671;77;21177;-58
2021/08/01 01:29:33;;;;;;;28.50;21.57;;;25.20;74.90;;;;;;1823046;79;21117;-57
2021/08/01 01:32:17;;;;;;;28.38;21.35;;;25.20;74.20;;;;;;1823099;77;21066;-57
2021/08/01 01:34:49;;;;;;;38.73;30.97;;;25.20;74.20;;;;;;1823063;78;21132;-57
2021/08/01 01:37:19;;;;;;;37.95;29.20;;;25.20;74.10;;;;;;1822800;77;21643;-57
2021/08/01 01:39:50;;;;;;;41.80;30.50;;;25.20;74.50;;;;;;1852631;77;21015;-57
2021/08/01 01:42:28;;;;;;;36.60;27.30;;;25.20;74.20;;;;;;1825343;78;21062;-57
2021/08/01 01:45:01;;;;;;;34.20;27.58;;;25.20;74.30;;;;;;1823091;77;21126;-57
2021/08/01 01:47:32;;;;;;;26.85;22.25;;;25.20;74.30;;;;;;1823743;77;21185;-57
2021/08/01 01:50:03;;;;;;;30.57;23.38;;;25.20;74.30;;;;;;1823052;77;21026;-57
2021/08/01 01:52:34;;;;;;;27.40;20.92;;;25.20;74.40;;;;;;1823147;79;21058;-57
2021/08/01 01:55:06;;;;;;;20.48;16.25;;;25.10;74.30;;;;;;1823592;77;21111;-58
2021/08/01 01:57:38;;;;;;;20.88;16.87;;;25.20;74.50;;;;;;1823056;79;21030;-57
2021/08/01 02:00:10;;;;;;;23.27;17.02;;;25.10;74.50;;;;;;1823068;79;21050;-57
2021/08/01 02:02:47;;;;;;;19.10;15.68;;;25.10;74.60;;;;;;1823217;78;21449;-56
2021/08/01 02:05:27;;;;;;;18.17;15.35;;;25.10;74.60;;;;;;1826016;77;21094;-56
2021/08/01 02:08:14;;;;;;;16.35;13.00;;;25.10;74.70;;;;;;1823060;79;21067;-56
2021/08/01 02:10:54;;;;;;;15.58;12.63;;;25.10;74.80;;;;;;1825346;77;21054;-56
2021/08/01 02:13:30;;;;;;;14.03;12.50;;;25.10;74.70;;;;;;1823168;79;21053;-56
2021/08/01 02:16:01;;;;;;;14.38;12.13;;;25.00;74.60;;;;;;1821970;78;21063;-56
2021/08/01 02:18:34;;;;;;;16.25;11.65;;;25.00;74.70;;;;;;1823062;79;21078;-56
2021/08/01 02:21:06;;;;;;;16.40;12.13;;;24.90;75.00;;;;;;1823270;79;21050;-57
2021/08/01 02:23:39;;;;;;;15.32;12.07;;;24.80;75.00;;;;;;1823039;79;21159;-56
2021/08/01 02:26:11;;;;;;;13.78;10.70;;;24.70;75.10;;;;;;1823098;78;21180;-56
2021/08/01 02:28:43;;;;;;;13.65;10.75;;;24.60;75.40;;;;;;1823183;79;21137;-56
2021/08/01 02:31:14;;;;;;;15.30;11.68;;;24.60;75.60;;;;;;1823099;79;21063;-56
2021/08/01 02:33:45;;;;;;;19.70;12.75;;;24.60;75.70;;;;;;1823239;78;21148;-57
2021/08/01 02:36:18;;;;;;;17.25;12.68;;;24.60;75.60;;;;;;1823134;77;21103;-56
2021/08/01 02:38:51;;;;;;;20.15;12.60;;;24.60;75.70;;;;;;1823034;77;21126;-56
2021/08/01 02:41:26;;;;;;;13.70;11.73;;;24.50;75.80;;;;;;1822345;78;21042;-57
2021/08/01 02:43:56;;;;;;;14.25;11.45;;;24.50;76.50;;;;;;1823042;79;21062;-57
2021/08/01 02:46:28;;;;;;;13.53;11.28;;;24.50;76.10;;;;;;1823010;79;21054;-56
2021/08/01 02:49:00;;;;;;;14.28;10.65;;;24.50;76.10;;;;;;1823151;79;21054;-57
2021/08/01 02:51:32;;;;;;;19.23;12.50;;;24.60;76.00;;;;;;1823010;79;21129;-56
2021/08/01 02:54:03;;;;;;;13.15;11.03;;;24.60;75.90;;;;;;1823058;79;21030;-56
2021/08/01 02:56:35;;;;;;;12.15;10.88;;;24.70;75.80;;;;;;1823016;79;21058;-56
2021/08/01 02:59:07;;;;;;;15.08;11.57;;;24.80;75.90;;;;;;1823132;79;21062;-56
2021/08/01 03:01:37;;;;;;;14.20;11.68;;;24.80;75.80;;;;;;1823109;79;21065;-56
2021/08/01 03:04:07;;;;;;;18.30;11.68;;;24.80;75.60;;;;;;1823125;79;21200;-56
2021/08/01 03:06:40;;;;;;;15.43;12.78;;;24.80;75.70;;;;;;1823061;79;21050;-56
2021/08/01 03:09:08;;;;;;;13.30;10.50;;;24.80;75.80;;;;;;1823312;77;21050;-56
2021/08/01 03:11:38;;;;;;;13.58;10.75;;;24.80;75.80;;;;;;1823077;78;21054;-56
2021/08/01 03:14:09;;;;;;;16.40;13.22;;;24.80;76.00;;;;;;1823081;77;21118;-56
2021/08/01 03:16:39;;;;;;;15.68;12.93;;;24.90;75.80;;;;;;1823029;79;21215;-56
2021/08/01 03:19:09;;;;;;;17.50;14.20;;;25.00;75.70;;;;;;1822998;78;21167;-56
2021/08/01 03:21:40;;;;;;;21.70;14.95;;;25.00;75.60;;;;;;1822973;79;21066;-56
2021/08/01 03:24:13;;;;;;;23.00;17.13;;;25.00;75.70;;;;;;1824971;77;21083;-56
2021/08/01 03:26:44;;;;;;;24.27;17.17;;;25.00;75.90;;;;;;1823966;77;21106;-56
2021/08/01 03:29:13;;;;;;;28.75;17.52;;;25.00;76.00;;;;;;1823079;79;21062;-56
2021/08/01 03:31:43;;;;;;;16.82;15.03;;;25.00;76.10;;;;;;1823044;79;21479;-56
2021/08/01 03:34:12;;;;;;;21.62;16.87;;;25.10;76.20;;;;;;1827547;77;21077;-56
2021/08/01 03:36:42;;;;;;;29.92;20.27;;;25.20;76.20;;;;;;1828843;78;21141;-56
2021/08/01 03:39:16;;;;;;;31.17;23.87;;;25.40;76.10;;;;;;1832238;77;21074;-56
2021/08/01 03:41:48;;;;;;;27.17;23.05;;;25.50;75.90;;;;;;1829290;77;21134;-56
2021/08/01 03:44:19;;;;;;;32.73;24.90;;;25.60;75.60;;;;;;1829160;77;21125;-56
2021/08/01 03:46:48;;;;;;;28.32;21.40;;;25.80;75.40;;;;;;1828800;78;21049;-56
2021/08/01 03:49:18;;;;;;;29.82;21.87;;;25.90;75.20;;;;;;1828913;78;21180;-56
2021/08/01 03:51:47;;;;;;;32.25;22.75;;;26.00;75.10;;;;;;1828901;78;21049;-56
2021/08/01 03:54:16;;;;;;;22.95;18.25;;;26.00;75.00;;;;;;1828879;78;21078;-56
2021/08/01 03:56:46;;;;;;;22.80;18.87;;;26.10;74.90;;;;;;1828922;78;21034;-57
2021/08/01 03:59:15;;;;;;;19.45;17.30;;;26.20;74.80;;;;;;1828872;77;21058;-57
2021/08/01 04:01:45;;;;;;;24.07;18.05;;;26.30;74.90;;;;;;1828855;78;21050;-56
2021/08/01 04:04:14;;;;;;;16.52;14.35;;;26.40;74.80;;;;;;1828954;78;21058;-56
2021/08/01 04:06:44;;;;;;;16.93;14.80;;;26.50;74.70;;;;;;1828823;78;21042;-57
2021/08/01 04:09:13;;;;;;;18.10;14.18;;;26.60;74.70;;;;;;1828782;77;21074;-56
2021/08/01 04:11:44;;;;;;;16.93;13.45;;;26.60;74.60;;;;;;1828778;78;21054;-57
2021/08/01 04:14:13;;;;;;;17.23;13.22;;;26.70;74.60;;;;;;1828941;78;21022;-56
2021/08/01 04:16:43;;;;;;;16.40;12.95;;;26.80;74.50;;;;;;1829010;78;21109;-57
2021/08/01 04:19:13;;;;;;;18.50;11.12;;;27.00;74.40;;;;;;1828845;78;21054;-56
2021/08/01 04:21:42;;;;;;;36.25;23.12;;;27.10;74.30;;;;;;1828941;78;21120;-57
2021/08/01 04:24:12;;;;;;;33.35;21.73;;;27.20;74.00;;;;;;1828890;78;21046;-57
2021/08/01 04:26:41;;;;;;;15.23;13.48;;;27.30;73.70;;;;;;1828698;78;21070;-57
2021/08/01 04:29:11;;;;;;;18.40;13.40;;;27.40;73.40;;;;;;1828771;78;21051;-57
2021/08/01 04:31:41;;;;;;;13.95;11.55;;;27.50;73.30;;;;;;1828903;78;21030;-56
2021/08/01 04:34:11;;;;;;;11.88;9.95;;;27.60;73.00;;;;;;1826052;78;21078;-57
2021/08/01 04:36:41;;;;;;;17.07;10.63;;;27.70;72.80;;;;;;1822974;79;21109;-57
2021/08/01 04:39:10;;;;;;;13.70;9.90;;;27.80;72.50;;;;;;1823073;79;21054;-57
2021/08/01 04:41:40;;;;;;;17.45;11.05;;;27.90;72.20;;;;;;1823005;79;21159;-57
2021/08/01 04:44:10;;;;;;;11.65;9.43;;;27.90;71.70;;;;;;1823060;79;21094;-56
2021/08/01 04:46:39;;;;;;;15.15;10.38;;;28.00;71.70;;;;;;1822991;79;21097;-57
2021/08/01 04:49:09;;;;;;;15.72;10.30;;;28.00;71.50;;;;;;1823133;79;21556;-57
2021/08/01 04:51:38;;;;;;;16.00;10.20;;;28.10;71.50;;;;;;1823073;78;21081;-57
2021/08/01 04:54:08;;;;;;;14.00;10.93;;;28.10;71.30;;;;;;1823009;79;21050;-57
2021/08/01 04:56:37;;;;;;;14.93;10.95;;;28.20;71.10;;;;;;1822953;79;21128;-57
2021/08/01 04:59:06;;;;;;;14.87;10.80;;;28.30;70.80;;;;;;1822903;78;21145;-57
2021/08/01 05:01:36;;;;;;;12.55;10.10;;;28.30;70.70;;;;;;1823058;79;21546;-57
2021/08/01 05:04:05;;;;;;;12.40;10.55;;;28.40;70.70;;;;;;1822962;78;21070;-57
2021/08/01 05:06:35;;;;;;;13.22;10.05;;;28.40;70.40;;;;;;1822989;78;21042;-57
2021/08/01 05:09:04;;;;;;;14.18;9.98;;;28.50;70.30;;;;;;1823045;79;21050;-57
2021/08/01 05:11:34;;;;;;;13.65;9.55;;;28.60;69.70;;;;;;1823174;79;21047;-57
2021/08/01 05:14:03;;;;;;;16.20;11.85;;;28.70;69.40;;;;;;1822973;78;21124;-57
2021/08/01 05:16:32;;;;;;;12.85;11.00;;;28.70;69.30;;;;;;1822899;79;21062;-57
2021/08/01 05:19:02;;;;;;;12.82;11.15;;;28.80;69.20;;;;;;1822973;79;21047;-57
2021/08/01 05:21:32;;;;;;;12.37;10.18;;;28.90;68.90;;;;;;1822951;79;21128;-57
2021/08/01 05:24:01;;;;;;;14.75;10.90;;;28.90;68.50;;;;;;1823061;79;21113;-57
2021/08/01 05:26:31;;;;;;;14.65;11.75;;;29.00;68.10;;;;;;1822931;79;21074;-57
2021/08/01 05:29:00;;;;;;;17.02;10.78;;;29.00;67.70;;;;;;1823094;79;21054;-57
2021/08/01 05:31:29;;;;;;;14.33;11.55;;;29.00;67.50;;;;;;1822952;79;21191;-57
2021/08/01 05:33:59;;;;;;;13.62;11.45;;;29.10;67.50;;;;;;1823760;78;21078;-57
2021/08/01 05:36:30;;;;;;;16.62;12.33;;;29.10;67.30;;;;;;1828860;78;21149;-57
2021/08/01 05:38:59;;;;;;;16.97;12.35;;;29.20;67.20;;;;;;1828725;78;21066;-57
2021/08/01 05:41:29;;;;;;;17.82;12.05;;;29.20;67.10;;;;;;1828798;78;21140;-56
2021/08/01 05:43:58;;;;;;;18.70;14.10;;;29.30;67.00;;;;;;1828765;78;21066;-57
2021/08/01 05:46:28;;;;;;;17.77;13.35;;;29.30;67.00;;;;;;1828777;78;21049;-57
2021/08/01 05:48:57;;;;;;;20.50;14.07;;;29.40;67.00;;;;;;1828945;78;21026;-57
2021/08/01 05:51:27;;;;;;;20.35;13.58;;;29.50;66.70;;;;;;1828924;78;21046;-56
2021/08/01 05:53:56;;;;;;;29.02;17.30;;;29.50;66.60;;;;;;1828888;78;21070;-57
2021/08/01 05:56:27;;;;;;;28.60;16.50;;;29.50;66.60;;;;;;1828840;78;21054;-57
2021/08/01 05:58:56;;;;;;;32.20;17.80;;;29.60;66.40;;;;;;1828985;78;21147;-56
2021/08/01 06:01:26;;;;;;;35.60;18.80;;;29.60;66.40;;;;;;1828823;78;21136;-57
2021/08/01 06:03:55;;;;;;;37.98;18.30;;;29.60;66.30;;;;;;1828862;77;21078;-57
2021/08/01 06:06:25;;;;;;;29.27;18.05;;;29.70;66.20;;;;;;1828795;78;22669;-57
2021/08/01 06:08:56;;;;;;;23.15;15.25;;;29.80;66.10;;;;;;1828964;78;21050;-57
2021/08/01 06:11:25;;;;;;;20.27;13.43;;;29.80;66.00;;;;;;1828885;78;21026;-57
2021/08/01 06:13:55;;;;;;;19.70;12.10;;;30.00;66.20;;;;;;1828810;78;21112;-57
2021/08/01 06:16:24;;;;;;;15.35;11.85;;;30.00;65.50;;;;;;1828967;78;21066;-57
2021/08/01 06:18:53;;;;;;;13.05;10.68;;;30.00;64.90;;;;;;1828816;78;21055;-57
2021/08/01 06:21:23;;;;;;;12.75;10.88;;;30.00;65.00;;;;;;1828758;78;21046;-56
2021/08/01 06:23:53;;;;;;;12.95;10.25;;;30.00;64.70;;;;;;1828772;78;21054;-57
2021/08/01 06:26:23;;;;;;;12.23;10.75;;;30.00;64.40;;;;;;1828717;78;21074;-57
2021/08/01 06:28:53;;;;;;;11.35;10.15;;;30.10;64.10;;;;;;1828825;78;21047;-57
2021/08/01 06:31:22;;;;;;;13.43;10.20;;;30.10;63.80;;;;;;1828739;78;21137;-57
2021/08/01 06:33:52;;;;;;;14.93;9.90;;;30.10;62.90;;;;;;1828766;78;21077;-57
2021/08/01 06:36:22;;;;;;;10.23;9.25;;;30.20;63.00;;;;;;1828800;78;21086;-56
2021/08/01 06:38:51;;;;;;;10.90;8.20;;;30.20;62.70;;;;;;1828777;78;21117;-57
2021/08/01 06:41:21;;;;;;;12.43;9.75;;;30.30;62.20;;;;;;1828796;78;21054;-57
2021/08/01 06:43:50;;;;;;;11.43;10.18;;;30.30;62.00;;;;;;1828733;77;21167;-57
2021/08/01 06:46:20;;;;;;;14.18;9.98;;;30.30;62.10;;;;;;1828959;78;21054;-57
2021/08/01 06:48:49;;;;;;;12.33;9.78;;;30.50;62.10;;;;;;1828921;78;21042;-57
2021/08/01 06:51:18;;;;;;;13.30;9.83;;;30.50;62.30;;;;;;1828766;77;21026;-57
2021/08/01 06:53:47;;;;;;;11.40;9.58;;;30.50;62.20;;;;;;1828732;78;21050;-56
2021/08/01 06:56:17;;;;;;;11.33;8.68;;;30.60;61.50;;;;;;1828849;78;21050;-56
2021/08/01 06:58:46;;;;;;;10.88;8.88;;;30.60;61.10;;;;;;1828840;78;21054;-57
2021/08/01 07:01:16;;;;;;;10.23;9.23;;;30.70;60.40;;;;;;1828852;78;21030;-57
2021/08/01 07:03:45;;;;;;;10.60;9.55;;;30.70;60.40;;;;;;1828788;78;21070;-57
2021/08/01 07:06:15;;;;;;;16.48;10.70;;;30.80;60.20;;;;;;1828728;77;21027;-57
2021/08/01 07:08:44;;;;;;;13.83;9.50;;;30.70;60.10;;;;;;1828808;77;21054;-57
2021/08/01 07:11:14;;;;;;;11.78;9.68;;;30.80;60.10;;;;;;1828763;78;21050;-57
2021/08/01 07:13:45;;;;;;;14.00;9.33;;;30.80;59.80;;;;;;1828756;78;21089;-57
2021/08/01 07:16:13;;;;;;;13.18;9.65;;;30.90;59.70;;;;;;1828786;78;21157;-57
2021/08/01 07:18:43;;;;;;;9.65;8.60;;;30.90;59.50;;;;;;1828780;78;21046;-57
2021/08/01 07:21:12;;;;;;;10.25;8.70;;;31.00;59.40;;;;;;1828718;78;21042;-57
2021/08/01 07:23:42;;;;;;;13.03;9.68;;;31.10;59.30;;;;;;1828777;78;21046;-57
2021/08/01 07:26:11;;;;;;;9.68;8.50;;;31.20;59.00;;;;;;1828784;78;21156;-57
2021/08/01 07:28:40;;;;;;;11.35;9.20;;;31.20;59.30;;;;;;1828792;78;21147;-57
2021/08/01 07:31:10;;;;;;;11.60;8.85;;;31.30;59.30;;;;;;1828828;78;21120;-57
2021/08/01 07:33:39;;;;;;;11.00;9.85;;;31.30;59.40;;;;;;1828686;78;21066;-57
2021/08/01 07:36:09;;;;;;;15.53;10.50;;;31.40;59.40;;;;;;1828643;77;21082;-57
2021/08/01 07:38:38;;;;;;;11.43;9.35;;;31.50;59.40;;;;;;1828603;78;21218;-57
2021/08/01 07:41:08;;;;;;;16.48;10.75;;;31.60;59.20;;;;;;1828737;78;21132;-57
2021/08/01 07:43:37;;;;;;;12.45;10.38;;;31.70;59.20;;;;;;1828627;78;21050;-57
2021/08/01 07:46:07;;;;;;;17.87;9.93;;;31.80;59.70;;;;;;1828602;78;21054;-57
2021/08/01 07:48:36;;;;;;;10.70;9.60;;;31.80;59.30;;;;;;1828782;78;21027;-56
2021/08/01 07:51:05;;;;;;;12.65;9.70;;;31.80;59.10;;;;;;1828645;78;21046;-57
2021/08/01 07:53:34;;;;;;;11.43;10.23;;;31.80;58.70;;;;;;1828849;78;21504;-57
2021/08/01 07:56:04;;;;;;;9.95;8.95;;;31.80;58.70;;;;;;1828768;78;21129;-57
2021/08/01 07:58:34;;;;;;;12.23;9.35;;;31.80;58.20;;;;;;1828841;78;21046;-57
2021/08/01 08:01:03;;;;;;;10.43;8.03;;;31.90;58.00;;;;;;1828786;78;21168;-57
2021/08/01 08:03:33;;;;;;;10.85;8.38;;;31.90;57.50;;;;;;1828796;78;21050;-57
2021/08/01 08:06:05;;;;;;;11.28;7.05;;;31.90;57.20;;;;;;1828801;78;21050;-57
2021/08/01 08:08:34;;;;;;;10.60;7.20;;;32.00;56.60;;;;;;1828619;78;21070;-57
2021/08/01 08:11:03;;;;;;;9.00;7.33;;;31.90;56.10;;;;;;1828812;78;21050;-57
2021/08/01 08:13:33;;;;;;;9.80;6.80;;;32.00;55.90;;;;;;1828725;78;21255;-57
2021/08/01 08:16:02;;;;;;;10.55;7.22;;;32.10;55.60;;;;;;1828759;78;21120;-57
2021/08/01 08:18:31;;;;;;;9.68;6.95;;;32.10;55.00;;;;;;1828744;78;21077;-57
2021/08/01 08:21:01;;;;;;;10.23;6.33;;;32.20;54.70;;;;;;1828766;78;21105;-57
2021/08/01 08:23:30;;;;;;;10.28;7.15;;;32.30;54.40;;;;;;1828706;78;21046;-57
2021/08/01 08:26:00;;;;;;;8.40;6.20;;;32.40;54.10;;;;;;1828611;78;21110;-57
2021/08/01 08:28:29;;;;;;;9.53;7.67;;;32.40;53.70;;;;;;1828777;78;21054;-57
2021/08/01 08:30:59;;;;;;;8.63;6.78;;;32.50;53.10;;;;;;1828667;78;21050;-57
2021/08/01 08:33:28;;;;;;;7.92;5.67;;;32.50;53.10;;;;;;1828779;78;21050;-57
2021/08/01 08:35:58;;;;;;;8.88;6.67;;;32.40;52.30;;;;;;1828770;78;21113;-57
2021/08/01 08:38:28;;;;;;;9.60;6.33;;;32.50;52.30;;;;;;1828804;78;21062;-57
2021/08/01 08:40:57;;;;;;;14.73;7.17;;;32.60;51.60;;;;;;1828767;78;21058;-57
2021/08/01 08:43:26;;;;;;;8.38;6.60;;;32.70;51.30;;;;;;1828850;77;21051;-57
2021/08/01 08:45:58;;;;;;;11.63;6.62;;;32.70;51.20;;;;;;1828938;78;21046;-57
2021/08/01 08:48:32;;;;;;;9.23;6.75;;;32.70;51.60;;;;;;1828811;78;21046;-57
2021/08/01 08:51:01;;;;;;;7.47;5.90;;;32.70;51.50;;;;;;1829022;78;21085;-57
2021/08/01 08:53:32;;;;;;;10.15;5.45;;;32.70;50.80;;;;;;1828772;78;21046;-57
2021/08/01 08:56:02;;;;;;;10.65;7.10;;;32.70;50.50;;;;;;1828681;78;21094;-57
2021/08/01 08:58:34;;;;;;;8.13;6.00;;;32.80;50.50;;;;;;1828850;78;21101;-57
2021/08/01 09:01:04;;;;;;;10.72;5.55;;;32.80;50.50;;;;;;1828746;78;21050;-57
2021/08/01 09:03:33;;;;;;;8.08;5.35;;;32.90;50.20;;;;;;1828723;78;21055;-57
2021/08/01 09:06:04;;;;;;;6.67;4.90;;;32.90;49.30;;;;;;1828666;78;21046;-57
2021/08/01 09:08:33;;;;;;;9.35;5.92;;;33.00;48.80;;;;;;1828827;78;21050;-57
2021/08/01 09:11:03;;;;;;;9.63;6.53;;;33.10;48.60;;;;;;1828790;78;21117;-57
2021/08/01 09:13:47;;;;;;;7.20;5.90;;;33.20;48.70;;;;;;1828816;78;21121;-61
2021/08/01 09:16:18;;;;;;;7.35;6.08;;;33.20;49.00;;;;;;1828895;78;21054;-57
2021/08/01 09:18:48;;;;;;;10.70;6.00;;;33.30;48.90;;;;;;1828953;78;21082;-57
2021/08/01 09:21:33;;;;;;;7.75;5.65;;;33.40;48.70;;;;;;1828893;78;21049;-57
2021/08/01 09:24:03;;;;;;;12.70;5.92;;;33.40;48.70;;;;;;1828931;78;21062;-57
2021/08/01 09:26:46;;;;;;;8.30;6.05;;;33.50;48.20;;;;;;1828705;78;21030;-57
2021/08/01 09:29:16;;;;;;;11.22;6.12;;;33.50;48.00;;;;;;1829226;78;21046;-57
2021/08/01 09:31:46;;;;;;;10.23;5.15;;;33.40;47.80;;;;;;1828966;78;21120;-57
2021/08/01 09:34:25;;;;;;;8.43;5.67;;;33.40;47.10;;;;;;1828860;78;21030;-57
2021/08/01 09:37:03;;;;;;;10.28;5.22;;;33.40;47.00;;;;;;1827054;77;21051;-57
2021/08/01 09:39:40;;;;;;;8.03;5.33;;;33.50;46.90;;;;;;1823076;79;21054;-57
2021/08/01 09:42:10;;;;;;;9.48;6.10;;;33.60;46.50;;;;;;1819281;78;21074;-57
2021/08/01 09:44:41;;;;;;;9.08;5.10;;;33.60;46.60;;;;;;1823164;79;21030;-57
2021/08/01 09:47:13;;;;;;;12.40;5.55;;;33.60;46.30;;;;;;1822886;78;21078;-57
2021/08/01 09:49:44;;;;;;;7.20;4.90;;;33.70;45.10;;;;;;1820967;78;21501;-57
2021/08/01 09:52:15;;;;;;;7.72;5.47;;;33.70;45.10;;;;;;1820577;77;21505;-57
2021/08/01 09:54:50;;;;;;;9.83;4.72;;;33.70;44.80;;;;;;1821370;78;21026;-57
2021/08/01 09:57:21;;;;;;;;;;;33.80;43.70;;;;;;1825699;78;21046;-57
2021/08/01 09:59:53;;;;;;;9.78;5.83;;;33.80;44.40;;;;;;1823009;79;20168;-57
2021/08/01 10:02:24;;;;;;;12.25;4.60;;;33.80;44.60;;;;;;1821326;78;21613;-57
2021/08/01 10:04:55;;;;;;;9.58;6.10;;;33.90;43.60;;;;;;1819730;78;21476;-57
2021/08/01 10:07:26;;;;;;;11.68;5.95;;;34.00;44.30;;;;;;1820145;78;21018;-57
2021/08/01 10:09:55;;;;;;;10.05;5.12;;;34.00;43.50;;;;;;1822929;78;21579;-57
2021/08/01 10:12:25;;;;;;;8.28;4.97;;;34.10;43.60;;;;;;1823091;79;21116;-57
2021/08/01 10:14:55;;;;;;;21.02;6.70;;;34.10;43.10;;;;;;1823016;78;21133;-57
2021/08/01 10:17:25;;;;;;;6.58;4.58;;;34.20;42.80;;;;;;1823182;79;21042;-57
2021/08/01 10:19:54;;;;;;;11.00;4.92;;;34.30;42.20;;;;;;1823047;78;21124;-57
2021/08/01 10:22:23;;;;;;;7.50;4.53;;;34.30;41.70;;;;;;1823125;79;21438;-58
2021/08/01 10:24:56;;;;;;;8.45;4.90;;;34.30;41.70;;;;;;1822955;79;21043;-57
2021/08/01 10:27:24;;;;;;;8.43;5.22;;;34.30;42.20;;;;;;1823020;78;21453;-57
2021/08/01 10:29:55;;;;;;;12.05;5.87;;;34.30;42.10;;;;;;1823058;78;21050;-57
2021/08/01 10:32:26;;;;;;;11.05;5.72;;;34.40;42.20;;;;;;1822990;79;21117;-57
2021/08/01 10:35:01;;;;;;;8.68;5.65;;;34.40;42.10;;;;;;1822802;79;21047;-57
2021/08/01 10:37:36;;;;;;;9.75;4.97;;;34.50;41.90;;;;;;1825310;77;21098;-56
2021/08/01 10:40:10;;;;;;;9.73;5.40;;;34.50;41.60;;;;;;1823410;78;21058;-57
2021/08/01 10:42:44;;;;;;;;;;;34.40;41.60;;;;;;1834793;78;21081;-57
2021/08/01 10:45:11;;;;;;;9.68;5.83;;;34.30;41.80;;;;;;1831592;77;20104;-57
2021/08/01 10:47:44;;;;;;;12.18;7.85;;;34.30;43.00;;;;;;1831823;78;21062;-57
2021/08/01 10:50:16;;;;;;;11.95;5.53;;;34.30;43.30;;;;;;1831887;78;21046;-57
2021/08/01 10:52:45;;;;;;;7.25;5.70;;;34.30;43.20;;;;;;1831957;78;21042;-57
2021/08/01 10:55:25;;;;;;;7.53;5.58;;;34.40;43.10;;;;;;1831835;78;21578;-57
2021/08/01 10:58:12;;;;;;;7.72;5.22;;;34.50;42.70;;;;;;1831884;78;21050;-58
2021/08/01 11:01:03;;;;;;;12.10;5.12;;;34.50;42.70;;;;;;1831467;77;21110;-57
2021/08/01 11:03:31;;;;;;;13.78;6.35;;;34.50;42.80;;;;;;1828398;77;21050;-57
2021/08/01 11:06:00;;;;;;;8.58;5.70;;;34.60;42.40;;;;;;1831973;78;21058;-57
2021/08/01 11:08:31;;;;;;;9.08;5.53;;;34.70;42.70;;;;;;1831928;78;21125;-57
2021/08/01 11:11:14;;;;;;;7.25;5.80;;;34.70;42.90;;;;;;1832089;78;21034;-57
2021/08/01 11:13:48;;;;;;;7.05;5.50;;;34.70;43.10;;;;;;1832115;78;21081;-57
2021/08/01 11:16:35;;;;;;;11.50;6.22;;;34.70;42.90;;;;;;1831964;78;21145;-57
2021/08/01 11:19:23;;;;;;;9.33;6.47;;;34.80;43.30;;;;;;1831949;78;21499;-57
2021/08/01 11:21:52;;;;;;;8.45;5.70;;;34.80;43.30;;;;;;1832035;78;21601;-57
2021/08/01 11:24:21;;;;;;;8.80;6.17;;;34.80;43.60;;;;;;1831830;78;21089;-57
2021/08/01 11:30:02;;;;;;;9.50;6.20;;;34.80;43.60;;;;;;1861451;77;21036;-57
2021/08/01 11:32:51;;;;;;;7.28;5.75;;;34.70;43.30;;;;;;1861560;77;21147;-57
2021/08/01 11:35:21;;;;;;;8.88;6.15;;;34.70;43.50;;;;;;1861608;77;21079;-57
2021/08/01 11:38:07;;;;;;;9.03;6.50;;;34.70;43.70;;;;;;1861438;77;21182;-58
2021/08/01 11:40:47;;;;;;;7.85;5.80;;;34.70;43.60;;;;;;1861421;77;21043;-57
2021/08/01 11:43:19;;;;;;;13.32;6.58;;;34.70;43.70;;;;;;1861460;77;21115;-57
2021/08/01 11:46:06;;;;;;;11.97;6.72;;;34.60;43.70;;;;;;1861210;77;21021;-57
2021/08/01 11:48:36;;;;;;;8.35;5.97;;;34.70;43.70;;;;;;1861445;77;21044;-58
2021/08/01 11:51:09;;;;;;;11.83;5.97;;;34.80;44.20;;;;;;1861243;76;21118;-58
2021/08/01 11:53:40;;;;;;;8.45;6.22;;;34.90;43.40;;;;;;1861620;77;21052;-58
2021/08/01 11:56:11;;;;;;;7.80;5.67;;;35.00;43.40;;;;;;1861250;77;21049;-58
2021/08/01 11:58:40;;;;;;;6.90;5.42;;;35.10;43.20;;;;;;1861446;77;21099;-58
2021/08/01 12:01:10;;;;;;;7.30;5.92;;;35.10;43.10;;;;;;1861434;77;21020;-58
2021/08/01 12:03:40;;;;;;;7.15;5.87;;;35.20;43.00;;;;;;1861480;77;21103;-58
2021/08/01 12:06:09;;;;;;;6.47;5.87;;;35.20;42.80;;;;;;1861524;77;21123;-58
2021/08/01 12:08:38;;;;;;;10.03;6.33;;;35.20;42.60;;;;;;1861511;77;21032;-58
2021/08/01 12:11:10;;;;;;;11.15;6.00;;;35.20;42.60;;;;;;1861321;77;21118;-58
2021/08/01 12:13:39;;;;;;;11.97;7.42;;;35.30;42.50;;;;;;1861442;77;21032;-58
2021/08/01 12:16:19;;;;;;;7.95;6.60;;;35.20;42.40;;;;;;1861404;77;21009;-58
2021/08/01 12:18:48;;;;;;;8.88;6.45;;;35.10;42.70;;;;;;1861462;77;21041;-58
2021/08/01 12:21:31;;;;;;;8.75;5.78;;;35.00;42.40;;;;;;1861378;77;21032;-58
2021/08/01 12:24:01;;;;;;;11.88;5.55;;;34.90;42.40;;;;;;1861205;77;21624;-59
2021/08/01 12:26:41;;;;;;;11.60;5.67;;;34.80;42.50;;;;;;1861364;77;21404;-58
2021/08/01 12:29:11;;;;;;;13.45;6.00;;;34.80;42.40;;;;;;1858399;77;21174;-59
2021/08/01 12:31:41;;;;;;;6.33;5.72;;;34.80;42.50;;;;;;1855065;77;21108;-58
2021/08/01 12:34:11;;;;;;;12.73;5.72;;;34.80;42.60;;;;;;1855074;76;21037;-59
2021/08/01 12:36:40;;;;;;;9.18;6.10;;;34.80;42.60;;;;;;1855257;77;21037;-59
2021/08/01 12:39:09;;;;;;;9.05;5.40;;;34.80;42.40;;;;;;1855325;77;21479;-59
2021/08/01 12:41:39;;;;;;;10.30;5.60;;;34.80;42.30;;;;;;1855330;77;21037;-58
2021/08/01 12:44:14;;;;;;;10.78;5.85;;;34.70;42.10;;;;;;1855280;77;21534;-58
2021/08/01 12:46:43;;;;;;;8.60;5.62;;;34.70;42.40;;;;;;1855248;77;21024;-58
2021/08/01 12:49:13;;;;;;;12.23;5.50;;;34.50;42.60;;;;;;1855246;77;21094;-58
2021/08/01 12:51:43;;;;;;;9.48;5.37;;;34.50;42.10;;;;;;1855143;77;21045;-58
2021/08/01 12:54:14;;;;;;;6.78;5.72;;;34.50;42.30;;;;;;1855089;77;21045;-59
2021/08/01 12:57:02;;;;;;;8.75;5.37;;;34.50;42.20;;;;;;1855068;77;21037;-59
2021/08/01 12:59:33;;;;;;;10.70;6.00;;;34.70;42.10;;;;;;1855127;77;21142;-58